sensor_id;sensor_type;location;lat;lon;timestamp;pressure;altitude;pressure_sealevel;temperature;humidity
59170;BME280;52474;52.236;5.114;2022-10-19T00:00:26;103002.44;;;5.13;100.00
59170;BME280;52474;52.236;5.114;2022-10-19T00:02:52;103028.34;;;5.27;100.00
59170;BME280;52474;52.236;5.114;2022-10-19T00:05:18;103039.88;;;5.22;100.00
59170;BME280;52474;52.236;5.114;2022-10-19T00:07:43;103034.09;;;5.09;100.00
59170;BME280;52474;52.236;5.114;2022-10-19T00:10:10;103042.03;;;5.07;100.00
59170;BME280;52474;52.236;5.114;2022-10-19T00:12:35;103038.53;;;5.07;100.00
59170;BME280;52474;52.236;5.114;2022-10-19T00:15:01;103015.28;;;4.93;100.00
59170;BME280;52474;52.236;5.114;2022-10-19T00:17:30;103038.59;;;5.05;100.00
59170;BME280;52474;52.236;5.114;2022-10-19T00:19:56;102955.81;;;4.58;100.00
59170;BME280;52474;52.236;5.114;2022-10-19T00:22:22;103023.97;;;4.95;100.00
59170;BME280;52474;52.236;5.114;2022-10-19T00:24:48;103027.50;;;4.94;100.00
59170;BME280;52474;52.236;5.114;2022-10-19T00:27:13;103020.41;;;4.98;100.00
59170;BME280;52474;52.236;5.114;2022-10-19T00:29:40;103029.22;;;4.95;100.00
59170;BME280;52474;52.236;5.114;2022-10-19T00:32:05;102969.94;;;4.54;100.00
59170;BME280;52474;52.236;5.114;2022-10-19T00:34:31;103000.25;;;4.65;100.00
59170;BME280;52474;52.236;5.114;2022-10-19T00:36:57;103020.66;;;4.88;100.00
59170;BME280;52474;52.236;5.114;2022-10-19T00:39:22;103027.59;;;4.91;100.00
59170;BME280;52474;52.236;5.114;2022-10-19T00:41:48;103027.56;;;4.92;100.00
59170;BME280;52474;52.236;5.114;2022-10-19T00:46:45;103014.47;;;4.89;100.00
59170;BME280;52474;52.236;5.114;2022-10-19T00:49:20;103001.78;;;4.74;100.00
59170;BME280;52474;52.236;5.114;2022-10-19T00:51:53;103020.44;;;4.96;100.00
59170;BME280;52474;52.236;5.114;2022-10-19T00:54:20;103024.66;;;5.02;100.00
59170;BME280;52474;52.236;5.114;2022-10-19T00:56:49;103017.22;;;4.85;100.00
59170;BME280;52474;52.236;5.114;2022-10-19T00:59:19;103019.13;;;4.80;100.00
59170;BME280;52474;52.236;5.114;2022-10-19T01:01:46;103014.66;;;4.83;100.00
59170;BME280;52474;52.236;5.114;2022-10-19T01:04:14;103005.25;;;4.74;100.00
59170;BME280;52474;52.236;5.114;2022-10-19T01:06:40;102977.72;;;4.57;100.00
59170;BME280;52474;52.236;5.114;2022-10-19T01:09:07;103012.34;;;4.71;100.00
59170;BME280;52474;52.236;5.114;2022-10-19T01:14:44;103020.22;;;4.71;100.00
59170;BME280;52474;52.236;5.114;2022-10-19T01:20:16;103009.81;;;4.68;100.00
59170;BME280;52474;52.236;5.114;2022-10-19T01:28:46;103001.16;;;4.64;100.00
59170;BME280;52474;52.236;5.114;2022-10-19T01:31:41;102999.38;;;4.65;100.00
59170;BME280;52474;52.236;5.114;2022-10-19T01:34:17;103009.84;;;4.66;100.00
59170;BME280;52474;52.236;5.114;2022-10-19T01:37:01;103006.31;;;4.67;100.00
59170;BME280;52474;52.236;5.114;2022-10-19T01:47:49;103000.41;;;4.59;100.00
59170;BME280;52474;52.236;5.114;2022-10-19T01:50:24;102978.13;;;4.41;100.00
59170;BME280;52474;52.236;5.114;2022-10-19T01:52:54;102993.81;;;4.43;100.00
59170;BME280;52474;52.236;5.114;2022-10-19T01:55:21;102932.88;;;3.97;100.00
59170;BME280;52474;52.236;5.114;2022-10-19T01:58:10;103005.09;;;4.48;100.00
59170;BME280;52474;52.236;5.114;2022-10-19T02:00:43;102965.53;;;4.20;100.00
59170;BME280;52474;52.236;5.114;2022-10-19T02:03:11;102987.13;;;4.31;100.00
59170;BME280;52474;52.236;5.114;2022-10-19T02:05:38;103005.22;;;4.42;100.00
59170;BME280;52474;52.236;5.114;2022-10-19T02:08:11;102998.94;;;4.47;100.00
59170;BME280;52474;52.236;5.114;2022-10-19T02:10:39;102966.28;;;4.25;100.00
59170;BME280;52474;52.236;5.114;2022-10-19T02:13:08;102956.81;;;4.19;100.00
59170;BME280;52474;52.236;5.114;2022-10-19T02:15:36;102962.28;;;4.10;100.00
59170;BME280;52474;52.236;5.114;2022-10-19T02:18:04;102998.59;;;4.27;100.00
59170;BME280;52474;52.236;5.114;2022-10-19T02:20:33;102932.06;;;3.95;100.00
59170;BME280;52474;52.236;5.114;2022-10-19T02:23:02;102980.25;;;4.25;100.00
59170;BME280;52474;52.236;5.114;2022-10-19T02:25:29;102940.16;;;4.20;100.00
59170;BME280;52474;52.236;5.114;2022-10-19T02:27:56;102947.94;;;4.25;100.00
59170;BME280;52474;52.236;5.114;2022-10-19T02:30:22;102957.66;;;4.21;100.00
59170;BME280;52474;52.236;5.114;2022-10-19T02:32:48;102993.22;;;4.32;100.00
59170;BME280;52474;52.236;5.114;2022-10-19T02:35:15;102992.31;;;4.33;100.00
59170;BME280;52474;52.236;5.114;2022-10-19T02:37:41;102963.88;;;4.16;100.00
59170;BME280;52474;52.236;5.114;2022-10-19T02:40:08;102946.84;;;3.98;100.00
59170;BME280;52474;52.236;5.114;2022-10-19T02:42:38;102950.22;;;4.03;100.00
59170;BME280;52474;52.236;5.114;2022-10-19T02:45:12;102946.88;;;3.96;100.00
59170;BME280;52474;52.236;5.114;2022-10-19T02:48:07;102978.56;;;4.23;100.00
59170;BME280;52474;52.236;5.114;2022-10-19T02:50:36;102970.94;;;4.14;100.00
59170;BME280;52474;52.236;5.114;2022-10-19T02:53:02;102952.94;;;3.98;100.00
59170;BME280;52474;52.236;5.114;2022-10-19T02:55:29;102949.63;;;3.92;100.00
59170;BME280;52474;52.236;5.114;2022-10-19T02:57:55;102954.81;;;3.93;100.00
59170;BME280;52474;52.236;5.114;2022-10-19T03:00:21;102950.41;;;3.95;100.00
59170;BME280;52474;52.236;5.114;2022-10-19T03:02:47;102971.75;;;4.16;100.00
59170;BME280;52474;52.236;5.114;2022-10-19T03:05:13;102968.47;;;4.07;100.00
59170;BME280;52474;52.236;5.114;2022-10-19T03:07:39;102972.00;;;4.06;100.00
59170;BME280;52474;52.236;5.114;2022-10-19T03:10:06;102933.19;;;3.83;100.00
59170;BME280;52474;52.236;5.114;2022-10-19T03:12:33;102935.81;;;3.83;100.00
59170;BME280;52474;52.236;5.114;2022-10-19T03:14:58;102951.41;;;3.90;100.00
59170;BME280;52474;52.236;5.114;2022-10-19T03:17:24;102919.50;;;3.72;100.00
59170;BME280;52474;52.236;5.114;2022-10-19T03:19:50;102941.06;;;3.83;100.00
59170;BME280;52474;52.236;5.114;2022-10-19T03:22:16;102935.75;;;3.86;100.00
59170;BME280;52474;52.236;5.114;2022-10-19T03:24:42;102965.81;;;4.09;100.00
59170;BME280;52474;52.236;5.114;2022-10-19T03:27:08;102943.47;;;3.93;100.00
59170;BME280;52474;52.236;5.114;2022-10-19T03:29:34;102963.38;;;4.01;100.00
59170;BME280;52474;52.236;5.114;2022-10-19T03:32:00;102955.66;;;3.94;100.00
59170;BME280;52474;52.236;5.114;2022-10-19T03:34:25;102933.53;;;3.70;100.00
59170;BME280;52474;52.236;5.114;2022-10-19T03:36:51;102903.25;;;3.56;100.00
59170;BME280;52474;52.236;5.114;2022-10-19T03:39:17;102950.69;;;3.83;100.00
59170;BME280;52474;52.236;5.114;2022-10-19T03:41:43;102910.06;;;3.63;100.00
59170;BME280;52474;52.236;5.114;2022-10-19T03:44:10;102914.34;;;3.68;100.00
59170;BME280;52474;52.236;5.114;2022-10-19T03:46:36;102940.19;;;3.83;100.00
59170;BME280;52474;52.236;5.114;2022-10-19T03:49:03;102934.84;;;3.89;100.00
59170;BME280;52474;52.236;5.114;2022-10-19T03:51:30;102911.63;;;3.72;100.00
59170;BME280;52474;52.236;5.114;2022-10-19T03:54:02;102877.22;;;3.50;100.00
59170;BME280;52474;52.236;5.114;2022-10-19T03:56:29;102948.03;;;3.84;100.00
59170;BME280;52474;52.236;5.114;2022-10-19T03:58:57;102906.50;;;3.68;100.00
59170;BME280;52474;52.236;5.114;2022-10-19T04:01:31;102949.72;;;3.87;100.00
59170;BME280;52474;52.236;5.114;2022-10-19T04:04:00;102951.50;;;3.85;100.00
59170;BME280;52474;52.236;5.114;2022-10-19T04:06:29;102939.31;;;3.84;100.00
59170;BME280;52474;52.236;5.114;2022-10-19T04:08:56;102945.06;;;3.98;100.00
59170;BME280;52474;52.236;5.114;2022-10-19T04:11:24;102954.56;;;4.04;100.00
59170;BME280;52474;52.236;5.114;2022-10-19T04:13:52;102906.97;;;3.83;100.00
59170;BME280;52474;52.236;5.114;2022-10-19T04:16:19;102898.47;;;3.74;100.00
59170;BME280;52474;52.236;5.114;2022-10-19T04:18:46;102946.72;;;4.04;100.00
59170;BME280;52474;52.236;5.114;2022-10-19T04:21:21;102906.28;;;3.77;100.00
59170;BME280;52474;52.236;5.114;2022-10-19T04:23:48;102931.38;;;3.87;100.00
59170;BME280;52474;52.236;5.114;2022-10-19T04:26:15;102937.47;;;3.87;100.00
59170;BME280;52474;52.236;5.114;2022-10-19T04:28:41;102921.97;;;3.78;100.00
59170;BME280;52474;52.236;5.114;2022-10-19T04:31:07;102941.94;;;3.84;100.00
59170;BME280;52474;52.236;5.114;2022-10-19T04:33:33;102943.09;;;3.71;100.00
59170;BME280;52474;52.236;5.114;2022-10-19T04:36:00;102904.44;;;3.43;100.00
59170;BME280;52474;52.236;5.114;2022-10-19T04:38:27;102946.69;;;3.66;100.00
59170;BME280;52474;52.236;5.114;2022-10-19T04:40:53;102908.66;;;3.50;100.00
59170;BME280;52474;52.236;5.114;2022-10-19T04:43:21;102895.94;;;3.32;100.00
59170;BME280;52474;52.236;5.114;2022-10-19T04:45:47;102895.16;;;3.28;100.00
59170;BME280;52474;52.236;5.114;2022-10-19T04:48:13;102947.75;;;3.59;100.00
59170;BME280;52474;52.236;5.114;2022-10-19T04:50:39;102945.06;;;3.61;100.00
59170;BME280;52474;52.236;5.114;2022-10-19T04:53:04;102952.06;;;3.60;100.00
59170;BME280;52474;52.236;5.114;2022-10-19T04:55:30;102920.09;;;3.44;100.00
59170;BME280;52474;52.236;5.114;2022-10-19T04:57:56;102897.72;;;3.30;100.00
59170;BME280;52474;52.236;5.114;2022-10-19T05:00:22;102924.38;;;3.49;100.00
59170;BME280;52474;52.236;5.114;2022-10-19T05:02:48;102945.16;;;3.56;100.00
59170;BME280;52474;52.236;5.114;2022-10-19T05:05:14;102884.78;;;3.23;100.00
59170;BME280;52474;52.236;5.114;2022-10-19T05:07:40;102895.84;;;3.36;100.00
59170;BME280;52474;52.236;5.114;2022-10-19T05:10:07;102919.81;;;3.57;100.00
59170;BME280;52474;52.236;5.114;2022-10-19T05:12:34;102930.56;;;3.83;100.00
59170;BME280;52474;52.236;5.114;2022-10-19T05:15:01;102920.19;;;3.79;100.00
59170;BME280;52474;52.236;5.114;2022-10-19T05:17:30;102912.34;;;3.79;100.00
59170;BME280;52474;52.236;5.114;2022-10-19T05:19:56;102914.94;;;3.79;100.00
59170;BME280;52474;52.236;5.114;2022-10-19T05:22:23;102940.94;;;3.88;100.00
59170;BME280;52474;52.236;5.114;2022-10-19T05:24:49;102934.13;;;3.81;100.00
59170;BME280;52474;52.236;5.114;2022-10-19T05:27:15;102912.47;;;3.74;100.00
59170;BME280;52474;52.236;5.114;2022-10-19T05:29:41;102904.16;;;3.91;100.00
59170;BME280;52474;52.236;5.114;2022-10-19T05:32:06;102896.09;;;4.00;100.00
59170;BME280;52474;52.236;5.114;2022-10-19T05:34:33;102904.69;;;4.07;100.00
59170;BME280;52474;52.236;5.114;2022-10-19T05:36:59;102932.84;;;4.33;100.00
59170;BME280;52474;52.236;5.114;2022-10-19T05:39:25;102912.75;;;4.34;100.00
59170;BME280;52474;52.236;5.114;2022-10-19T05:41:51;102893.75;;;4.24;100.00
59170;BME280;52474;52.236;5.114;2022-10-19T05:44:21;102925.56;;;4.44;100.00
59170;BME280;52474;52.236;5.114;2022-10-19T05:46:49;102923.91;;;4.40;100.00
59170;BME280;52474;52.236;5.114;2022-10-19T05:49:17;102907.63;;;4.27;100.00
59170;BME280;52474;52.236;5.114;2022-10-19T05:51:44;102896.75;;;4.43;100.00
59170;BME280;52474;52.236;5.114;2022-10-19T05:54:11;102886.25;;;4.43;100.00
59170;BME280;52474;52.236;5.114;2022-10-19T05:56:38;102919.16;;;4.87;100.00
59170;BME280;52474;52.236;5.114;2022-10-19T05:59:05;102909.69;;;4.82;100.00
59170;BME280;52474;52.236;5.114;2022-10-19T06:01:33;102900.91;;;4.83;100.00
59170;BME280;52474;52.236;5.114;2022-10-19T06:04:00;102895.72;;;4.80;100.00
59170;BME280;52474;52.236;5.114;2022-10-19T06:06:29;102930.25;;;4.97;100.00
59170;BME280;52474;52.236;5.114;2022-10-19T06:08:56;102924.94;;;5.00;100.00
59170;BME280;52474;52.236;5.114;2022-10-19T06:11:29;102904.81;;;4.99;100.00
59170;BME280;52474;52.236;5.114;2022-10-19T06:13:57;102921.84;;;5.15;100.00
59170;BME280;52474;52.236;5.114;2022-10-19T06:16:25;102921.53;;;5.26;100.00
59170;BME280;52474;52.236;5.114;2022-10-19T06:18:52;102925.03;;;5.27;100.00
59170;BME280;52474;52.236;5.114;2022-10-19T06:21:20;102899.25;;;5.10;100.00
59170;BME280;52474;52.236;5.114;2022-10-19T06:23:54;102890.59;;;5.06;100.00
59170;BME280;52474;52.236;5.114;2022-10-19T06:26:22;102915.03;;;5.10;100.00
59170;BME280;52474;52.236;5.114;2022-10-19T06:28:49;102934.63;;;5.28;100.00
59170;BME280;52474;52.236;5.114;2022-10-19T06:31:16;102930.47;;;5.21;100.00
59170;BME280;52474;52.236;5.114;2022-10-19T06:33:43;102887.34;;;4.98;100.00
59170;BME280;52474;52.236;5.114;2022-10-19T06:36:15;102892.84;;;5.19;100.00
59170;BME280;52474;52.236;5.114;2022-10-19T06:38:42;102886.94;;;5.12;100.00
59170;BME280;52474;52.236;5.114;2022-10-19T06:41:09;102904.88;;;5.27;100.00
59170;BME280;52474;52.236;5.114;2022-10-19T06:43:34;102898.69;;;5.28;100.00
59170;BME280;52474;52.236;5.114;2022-10-19T06:46:07;102918.53;;;5.38;100.00
59170;BME280;52474;52.236;5.114;2022-10-19T06:48:33;102916.72;;;5.41;100.00
59170;BME280;52474;52.236;5.114;2022-10-19T06:51:07;102928.28;;;5.63;100.00
59170;BME280;52474;52.236;5.114;2022-10-19T06:53:38;102884.94;;;5.48;100.00
59170;BME280;52474;52.236;5.114;2022-10-19T06:56:05;102882.13;;;5.54;100.00
59170;BME280;52474;52.236;5.114;2022-10-19T06:58:35;102929.56;;;5.78;100.00
59170;BME280;52474;52.236;5.114;2022-10-19T07:01:03;102885.47;;;5.59;100.00
59170;BME280;52474;52.236;5.114;2022-10-19T07:03:29;102917.78;;;5.91;100.00
59170;BME280;52474;52.236;5.114;2022-10-19T07:05:58;102900.91;;;5.98;100.00
59170;BME280;52474;52.236;5.114;2022-10-19T07:08:25;102895.41;;;6.06;100.00
59170;BME280;52474;52.236;5.114;2022-10-19T07:10:52;102904.28;;;6.29;100.00
59170;BME280;52474;52.236;5.114;2022-10-19T07:13:19;102913.59;;;6.37;100.00
59170;BME280;52474;52.236;5.114;2022-10-19T07:15:45;102894.94;;;6.45;100.00
59170;BME280;52474;52.236;5.114;2022-10-19T07:18:11;102920.22;;;6.74;100.00
59170;BME280;52474;52.236;5.114;2022-10-19T07:20:37;102930.31;;;6.86;100.00
59170;BME280;52474;52.236;5.114;2022-10-19T07:23:03;102926.97;;;6.81;100.00
59170;BME280;52474;52.236;5.114;2022-10-19T07:25:29;102925.91;;;6.87;100.00
59170;BME280;52474;52.236;5.114;2022-10-19T07:27:55;102919.91;;;7.07;100.00
59170;BME280;52474;52.236;5.114;2022-10-19T07:30:22;102920.00;;;7.27;100.00
59170;BME280;52474;52.236;5.114;2022-10-19T07:32:48;102890.34;;;7.22;100.00
59170;BME280;52474;52.236;5.114;2022-10-19T07:35:14;102897.25;;;7.25;100.00
59170;BME280;52474;52.236;5.114;2022-10-19T07:37:40;102926.91;;;7.53;100.00
59170;BME280;52474;52.236;5.114;2022-10-19T07:40:07;102926.13;;;7.73;100.00
59170;BME280;52474;52.236;5.114;2022-10-19T07:42:33;102919.50;;;7.85;100.00
59170;BME280;52474;52.236;5.114;2022-10-19T07:45:02;102908.34;;;7.79;100.00
59170;BME280;52474;52.236;5.114;2022-10-19T07:47:28;102906.72;;;7.96;100.00
59170;BME280;52474;52.236;5.114;2022-10-19T07:49:54;102900.44;;;7.99;100.00
59170;BME280;52474;52.236;5.114;2022-10-19T07:52:20;102912.88;;;8.17;100.00
59170;BME280;52474;52.236;5.114;2022-10-19T07:54:46;102925.56;;;8.30;100.00
59170;BME280;52474;52.236;5.114;2022-10-19T07:57:14;102925.25;;;8.37;100.00
59170;BME280;52474;52.236;5.114;2022-10-19T07:59:40;102919.84;;;8.41;100.00
59170;BME280;52474;52.236;5.114;2022-10-19T08:02:14;102932.59;;;8.51;100.00
59170;BME280;52474;52.236;5.114;2022-10-19T08:04:41;102937.66;;;8.56;100.00
59170;BME280;52474;52.236;5.114;2022-10-19T08:07:07;102938.75;;;8.52;100.00
59170;BME280;52474;52.236;5.114;2022-10-19T08:09:33;102933.59;;;8.69;100.00
59170;BME280;52474;52.236;5.114;2022-10-19T08:11:59;102937.78;;;8.73;100.00
59170;BME280;52474;52.236;5.114;2022-10-19T08:14:25;102919.50;;;8.69;100.00
59170;BME280;52474;52.236;5.114;2022-10-19T08:16:50;102900.59;;;8.78;100.00
59170;BME280;52474;52.236;5.114;2022-10-19T08:19:16;102921.91;;;8.94;100.00
59170;BME280;52474;52.236;5.114;2022-10-19T08:21:45;102930.00;;;9.10;100.00
59170;BME280;52474;52.236;5.114;2022-10-19T08:24:14;102914.22;;;9.08;100.00
59170;BME280;52474;52.236;5.114;2022-10-19T08:26:40;102926.53;;;9.28;100.00
59170;BME280;52474;52.236;5.114;2022-10-19T08:29:12;102919.13;;;9.35;100.00
59170;BME280;52474;52.236;5.114;2022-10-19T08:31:39;102893.78;;;9.31;100.00
59170;BME280;52474;52.236;5.114;2022-10-19T08:34:05;102905.97;;;9.52;100.00
59170;BME280;52474;52.236;5.114;2022-10-19T08:36:32;102903.63;;;9.65;100.00
59170;BME280;52474;52.236;5.114;2022-10-19T08:39:01;102893.72;;;9.68;100.00
59170;BME280;52474;52.236;5.114;2022-10-19T08:49:51;102890.28;;;10.38;100.00
59170;BME280;52474;52.236;5.114;2022-10-19T08:52:19;102880.47;;;10.40;100.00
59170;BME280;52474;52.236;5.114;2022-10-19T08:54:50;102892.91;;;10.55;100.00
59170;BME280;52474;52.236;5.114;2022-10-19T09:02:49;102878.88;;;11.02;100.00
59170;BME280;52474;52.236;5.114;2022-10-19T09:05:27;102866.75;;;11.14;100.00
59170;BME280;52474;52.236;5.114;2022-10-19T09:07:57;102861.88;;;11.22;100.00
59170;BME280;52474;52.236;5.114;2022-10-19T09:10:30;102862.81;;;11.53;100.00
59170;BME280;52474;52.236;5.114;2022-10-19T09:13:16;102863.91;;;11.65;100.00
59170;BME280;52474;52.236;5.114;2022-10-19T09:15:48;102830.84;;;11.70;100.00
59170;BME280;52474;52.236;5.114;2022-10-19T09:18:25;102857.38;;;12.16;100.00
59170;BME280;52474;52.236;5.114;2022-10-19T09:21:22;102828.66;;;14.14;100.00
59170;BME280;52474;52.236;5.114;2022-10-19T09:24:10;102819.13;;;18.46;100.00
59170;BME280;52474;52.236;5.114;2022-10-19T09:26:51;102807.22;;;20.90;100.00
59170;BME280;52474;52.236;5.114;2022-10-19T09:31:58;102808.75;;;23.93;100.00
59170;BME280;52474;52.236;5.114;2022-10-19T09:34:27;102816.56;;;24.44;100.00
59170;BME280;52474;52.236;5.114;2022-10-19T09:36:56;102796.75;;;24.43;100.00
59170;BME280;52474;52.236;5.114;2022-10-19T09:39:23;102788.19;;;24.24;100.00
59170;BME280;52474;52.236;5.114;2022-10-19T09:41:52;102789.25;;;22.91;100.00
59170;BME280;52474;52.236;5.114;2022-10-19T09:44:20;102803.41;;;22.93;100.00
59170;BME280;52474;52.236;5.114;2022-10-19T09:46:54;102779.66;;;23.38;100.00
59170;BME280;52474;52.236;5.114;2022-10-19T09:52:03;102798.75;;;23.04;100.00
59170;BME280;52474;52.236;5.114;2022-10-19T09:54:35;102795.06;;;24.42;100.00
59170;BME280;52474;52.236;5.114;2022-10-19T09:57:03;102786.28;;;23.76;100.00
59170;BME280;52474;52.236;5.114;2022-10-19T09:59:33;102773.53;;;22.95;100.00
59170;BME280;52474;52.236;5.114;2022-10-19T10:02:13;102775.75;;;23.00;100.00
59170;BME280;52474;52.236;5.114;2022-10-19T10:04:39;102795.72;;;23.48;100.00
59170;BME280;52474;52.236;5.114;2022-10-19T10:07:13;102775.25;;;24.50;100.00
59170;BME280;52474;52.236;5.114;2022-10-19T10:09:41;102799.44;;;24.91;94.66
59170;BME280;52474;52.236;5.114;2022-10-19T10:12:08;102801.28;;;25.22;95.55
59170;BME280;52474;52.236;5.114;2022-10-19T10:14:37;102790.41;;;24.99;92.82
59170;BME280;52474;52.236;5.114;2022-10-19T10:17:13;102791.88;;;22.06;100.00
59170;BME280;52474;52.236;5.114;2022-10-19T10:22:29;102796.69;;;23.06;100.00
59170;BME280;52474;52.236;5.114;2022-10-19T10:24:55;102791.88;;;21.80;100.00
59170;BME280;52474;52.236;5.114;2022-10-19T10:29:55;102784.56;;;21.73;100.00
59170;BME280;52474;52.236;5.114;2022-10-19T10:32:21;102791.13;;;20.80;100.00
59170;BME280;52474;52.236;5.114;2022-10-19T10:37:29;102758.19;;;22.11;100.00
59170;BME280;52474;52.236;5.114;2022-10-19T10:39:59;102769.97;;;22.94;92.53
59170;BME280;52474;52.236;5.114;2022-10-19T10:42:36;102755.44;;;22.37;100.00
59170;BME280;52474;52.236;5.114;2022-10-19T10:45:22;102755.81;;;23.01;100.00
59170;BME280;52474;52.236;5.114;2022-10-19T10:47:49;102758.94;;;22.21;95.85
59170;BME280;52474;52.236;5.114;2022-10-19T10:50:23;102743.84;;;23.44;94.90
59170;BME280;52474;52.236;5.114;2022-10-19T10:52:58;102743.78;;;22.28;92.11
59170;BME280;52474;52.236;5.114;2022-10-19T10:55:24;102734.72;;;23.78;86.50
59170;BME280;52474;52.236;5.114;2022-10-19T10:57:57;102725.19;;;24.38;89.74
59170;BME280;52474;52.236;5.114;2022-10-19T11:00:27;102751.19;;;24.55;81.36
59170;BME280;52474;52.236;5.114;2022-10-19T11:03:20;102746.31;;;26.25;73.56
59170;BME280;52474;52.236;5.114;2022-10-19T11:05:53;102736.13;;;27.78;66.73
59170;BME280;52474;52.236;5.114;2022-10-19T11:08:32;102723.47;;;26.34;66.08
59170;BME280;52474;52.236;5.114;2022-10-19T11:11:05;102716.22;;;25.90;78.36
59170;BME280;52474;52.236;5.114;2022-10-19T11:13:43;102693.38;;;26.00;67.86
59170;BME280;52474;52.236;5.114;2022-10-19T11:16:12;102716.91;;;26.44;66.72
59170;BME280;52474;52.236;5.114;2022-10-19T11:29:22;102682.59;;;27.85;56.54
59170;BME280;52474;52.236;5.114;2022-10-19T11:31:54;102660.44;;;28.76;55.95
59170;BME280;52474;52.236;5.114;2022-10-19T11:36:58;102633.44;;;27.65;57.02
59170;BME280;52474;52.236;5.114;2022-10-19T11:47:26;102636.09;;;28.55;50.46
59170;BME280;52474;52.236;5.114;2022-10-19T11:50:13;102634.94;;;28.09;56.73
59170;BME280;52474;52.236;5.114;2022-10-19T11:52:54;102621.06;;;27.97;51.73
59170;BME280;52474;52.236;5.114;2022-10-19T11:58:38;102621.31;;;27.68;48.97
59170;BME280;52474;52.236;5.114;2022-10-19T12:14:28;102575.56;;;27.43;49.81
59170;BME280;52474;52.236;5.114;2022-10-19T12:16:57;102562.19;;;27.90;48.60
59170;BME280;52474;52.236;5.114;2022-10-19T12:19:28;102573.03;;;26.57;51.22
59170;BME280;52474;52.236;5.114;2022-10-19T12:22:01;102550.53;;;26.63;53.08
59170;BME280;52474;52.236;5.114;2022-10-19T12:24:29;102562.44;;;25.68;59.57
59170;BME280;52474;52.236;5.114;2022-10-19T12:26:57;102544.88;;;27.21;51.64
59170;BME280;52474;52.236;5.114;2022-10-19T12:29:28;102560.03;;;26.31;52.73
59170;BME280;52474;52.236;5.114;2022-10-19T12:31:56;102542.97;;;27.15;56.82
59170;BME280;52474;52.236;5.114;2022-10-19T12:45:32;102515.88;;;18.95;100.00
59170;BME280;52474;52.236;5.114;2022-10-19T12:53:31;102514.00;;;17.69;100.00
59170;BME280;52474;52.236;5.114;2022-10-19T13:01:08;102499.84;;;18.17;100.00
59170;BME280;52474;52.236;5.114;2022-10-19T13:03:38;102492.69;;;17.77;100.00
59170;BME280;52474;52.236;5.114;2022-10-19T13:08:54;102498.13;;;17.46;100.00
59170;BME280;52474;52.236;5.114;2022-10-19T13:11:21;102468.91;;;17.33;100.00
59170;BME280;52474;52.236;5.114;2022-10-19T13:24:26;102468.53;;;17.07;100.00
59170;BME280;52474;52.236;5.114;2022-10-19T13:27:22;102470.47;;;17.36;100.00
59170;BME280;52474;52.236;5.114;2022-10-19T13:29:48;102456.88;;;16.87;100.00
59170;BME280;52474;52.236;5.114;2022-10-19T13:32:37;102458.03;;;16.73;100.00
59170;BME280;52474;52.236;5.114;2022-10-19T13:35:29;102461.16;;;16.16;100.00
59170;BME280;52474;52.236;5.114;2022-10-19T13:38:19;102460.56;;;15.68;100.00
59170;BME280;52474;52.236;5.114;2022-10-19T13:51:08;102442.06;;;14.99;100.00
59170;BME280;52474;52.236;5.114;2022-10-19T13:56:38;102434.38;;;14.84;100.00
59170;BME280;52474;52.236;5.114;2022-10-19T14:08:14;102448.78;;;14.58;100.00
59170;BME280;52474;52.236;5.114;2022-10-19T14:10:49;102436.78;;;14.64;100.00
59170;BME280;52474;52.236;5.114;2022-10-19T14:13:16;102453.66;;;14.65;100.00
59170;BME280;52474;52.236;5.114;2022-10-19T14:15:51;102436.75;;;14.53;100.00
59170;BME280;52474;52.236;5.114;2022-10-19T14:21:02;102453.69;;;14.41;100.00
59170;BME280;52474;52.236;5.114;2022-10-19T14:23:32;102451.25;;;14.37;100.00
59170;BME280;52474;52.236;5.114;2022-10-19T14:26:28;102424.50;;;14.15;100.00
59170;BME280;52474;52.236;5.114;2022-10-19T14:28:56;102443.25;;;14.37;100.00
59170;BME280;52474;52.236;5.114;2022-10-19T14:31:30;102439.22;;;14.32;100.00
59170;BME280;52474;52.236;5.114;2022-10-19T14:34:01;102402.50;;;14.13;100.00
59170;BME280;52474;52.236;5.114;2022-10-19T14:36:38;102436.81;;;14.29;100.00
59170;BME280;52474;52.236;5.114;2022-10-19T14:39:10;102438.72;;;14.15;100.00
59170;BME280;52474;52.236;5.114;2022-10-19T14:41:50;102429.72;;;14.16;100.00
59170;BME280;52474;52.236;5.114;2022-10-19T14:44:29;102432.41;;;14.16;100.00
59170;BME280;52474;52.236;5.114;2022-10-19T14:47:00;102411.09;;;13.92;100.00
59170;BME280;52474;52.236;5.114;2022-10-19T14:49:26;102402.84;;;13.84;100.00
59170;BME280;52474;52.236;5.114;2022-10-19T14:51:59;102383.03;;;13.64;100.00
59170;BME280;52474;52.236;5.114;2022-10-19T14:54:32;102419.50;;;13.75;100.00
59170;BME280;52474;52.236;5.114;2022-10-19T14:57:05;102365.88;;;13.44;100.00
59170;BME280;52474;52.236;5.114;2022-10-19T14:59:40;102414.13;;;13.64;100.00
59170;BME280;52474;52.236;5.114;2022-10-19T15:04:44;102393.59;;;13.53;100.00
59170;BME280;52474;52.236;5.114;2022-10-19T15:07:18;102383.53;;;13.45;100.00
59170;BME280;52474;52.236;5.114;2022-10-19T15:09:55;102380.34;;;13.40;100.00
59170;BME280;52474;52.236;5.114;2022-10-19T15:12:28;102377.81;;;13.26;100.00
59170;BME280;52474;52.236;5.114;2022-10-19T15:14:58;102338.59;;;13.04;100.00
59170;BME280;52474;52.236;5.114;2022-10-19T15:17:26;102341.50;;;13.01;100.00
59170;BME280;52474;52.236;5.114;2022-10-19T15:19:58;102356.69;;;12.99;100.00
59170;BME280;52474;52.236;5.114;2022-10-19T15:27:44;102327.47;;;12.86;100.00
59170;BME280;52474;52.236;5.114;2022-10-19T15:32:48;102337.81;;;12.78;100.00
59170;BME280;52474;52.236;5.114;2022-10-19T15:35:33;102365.31;;;12.89;100.00
59170;BME280;52474;52.236;5.114;2022-10-19T15:40:44;102350.38;;;12.63;100.00